Airfield :
LOGIN :

Register | Disclaimer

   EN    FR    IT 

 










Legend :    VFR   Marginal VFR   IFR   Intensive IFR   Very Intensive IFR
Visi :
Ceiling :
>= 8 km
>= 3000ft
5 to 8 km
1000 to 3000 ft
1500m to 5 km
500 to 1000 ft
800 to 1500m
200 to 500 ft
< 800m
< 200 ft
Symbols :   Thunderstorms  Fog  Heavy snow  Heavy precipitations  Wind > 20 kt
SIGMETs :     Misc.  Thunderstorms  Icing  Turbulence  Mountain Waves  Volcanic Ashes






- Airport Elevation : 2581 ft
- IATA code : ESK


LTBI - Eskisehir

CURRENT METAR :
  • 181029Z 27004KT 190V330 9999 VCTS FEW025CB SCT035 20/12 Q1020 NOSIG RMK RWY08 21006KT 150V230

TAF TAF LTBI
Valid from the 18 at 09:00 until the 18 at 18:00 UTC


180740Z 1809/1818 30008KT 9999 SCT035 SCT100
TEMPO 1812/1815 -SHRA BKN030
BECMG 1816/1818 CAVOK



MET'MAP, your aeronautical weather chart ! - Copyright ORBIFLY December 2007 - Disclaimer

ORBIFLY MET'MAP TEAM :

Programming & Development : Alexandra Zaïnal
Concept & Development : Baudouin d'Aumeries
Co-Development & Prog : Marc-Olivier Méhu
Technical & hardware support : Manuel Goepfert

Contact : metmap@orbifly.com




SOURCES & CREDITS :

   NOAA